createdAt,value
2023-07-05T00:00:40.380Z,4.50
2023-07-05T00:03:07.076Z,5.13
2023-07-05T00:05:38.147Z,4.23
2023-07-05T00:08:05.960Z,4.30
2023-07-05T00:10:33.008Z,3.38
2023-07-05T00:13:00.739Z,3.92
2023-07-05T00:15:28.652Z,3.95
2023-07-05T00:17:55.489Z,4.47
2023-07-05T00:20:22.250Z,4.47
2023-07-05T00:22:48.938Z,4.43
2023-07-05T00:25:15.576Z,4.40
2023-07-05T00:27:42.251Z,4.57
2023-07-05T00:30:09.503Z,4.72
2023-07-05T00:32:36.270Z,4.83
2023-07-05T00:35:03.013Z,4.30
2023-07-05T00:37:29.688Z,4.73
2023-07-05T00:39:56.504Z,5.97
2023-07-05T00:42:23.103Z,5.40
2023-07-05T00:45:13.949Z,4.23
2023-07-05T00:47:43.618Z,5.40
2023-07-05T00:50:25.874Z,4.85
2023-07-05T00:52:55.103Z,4.50
2023-07-05T00:55:24.859Z,4.85
2023-07-05T00:57:52.028Z,4.47
2023-07-05T01:00:21.797Z,4.73
2023-07-05T01:02:53.413Z,4.97
2023-07-05T01:05:20.434Z,3.92
2023-07-05T01:07:48.848Z,4.77
2023-07-05T01:10:21.646Z,4.27
2023-07-05T01:13:06.833Z,4.43
2023-07-05T01:15:45.221Z,5.33
2023-07-05T01:18:23.792Z,4.43
2023-07-05T01:21:12.633Z,4.85
2023-07-05T01:24:11.839Z,5.50
2023-07-05T01:27:32.944Z,4.30
2023-07-05T01:30:40.687Z,5.13
2023-07-05T01:33:14.914Z,4.63
2023-07-05T01:35:52.073Z,5.30
2023-07-05T01:38:19.068Z,5.17
2023-07-05T01:40:45.749Z,4.23
2023-07-05T01:43:15.348Z,5.13
2023-07-05T01:45:48.020Z,6.47
2023-07-05T01:48:30.036Z,4.85
2023-07-05T01:51:14.653Z,4.63
2023-07-05T01:54:07.762Z,4.50
2023-07-05T01:56:44.129Z,5.10
2023-07-05T01:59:12.796Z,5.50
2023-07-05T02:01:43.757Z,4.50
2023-07-05T02:04:13.663Z,4.15
2023-07-05T02:06:42.739Z,4.75
2023-07-05T02:09:09.226Z,4.82
2023-07-05T02:11:35.926Z,4.70
2023-07-05T02:14:02.598Z,4.53
2023-07-05T02:16:29.164Z,4.63
2023-07-05T02:18:55.672Z,4.47
2023-07-05T02:21:22.160Z,5.05
2023-07-05T02:23:48.793Z,4.28
2023-07-05T02:26:15.344Z,5.05
2023-07-05T02:28:42.038Z,4.65
2023-07-05T02:31:13.371Z,4.13
2023-07-05T02:33:41.652Z,3.40
2023-07-05T02:36:14.097Z,3.95
2023-07-05T02:38:41.575Z,4.28
2023-07-05T02:41:09.187Z,4.15
2023-07-05T02:43:35.836Z,3.33
2023-07-05T02:46:02.690Z,3.53
2023-07-05T02:48:29.398Z,3.30
2023-07-05T02:50:55.988Z,3.42
2023-07-05T02:53:22.665Z,3.75
2023-07-05T02:55:50.404Z,3.78
2023-07-05T02:58:17.069Z,3.92
2023-07-05T03:00:44.432Z,3.58
2023-07-05T03:03:11.271Z,2.53
2023-07-05T03:05:37.797Z,3.60
2023-07-05T03:08:04.558Z,2.97
2023-07-05T03:10:31.084Z,3.28
2023-07-05T03:12:57.627Z,2.47
2023-07-05T03:15:24.186Z,2.83
2023-07-05T03:17:50.771Z,2.92
2023-07-05T03:20:17.286Z,2.78
2023-07-05T03:22:43.791Z,2.63
2023-07-05T03:25:10.367Z,2.00
2023-07-05T03:27:36.897Z,2.30
2023-07-05T03:30:03.759Z,2.22
2023-07-05T03:32:30.839Z,1.77
2023-07-05T03:35:01.143Z,2.22
2023-07-05T03:37:29.923Z,3.10
2023-07-05T03:39:56.547Z,2.28
2023-07-05T03:42:23.158Z,2.90
2023-07-05T03:44:49.819Z,2.30
2023-07-05T03:47:16.411Z,1.75
2023-07-05T03:49:43.082Z,2.15
2023-07-05T03:52:09.581Z,1.98
2023-07-05T03:54:36.289Z,2.35
2023-07-05T03:57:02.862Z,3.40
2023-07-05T03:59:29.429Z,3.00
2023-07-05T04:01:56.718Z,3.35
2023-07-05T04:04:23.399Z,3.03
2023-07-05T04:06:50.017Z,3.72
2023-07-05T04:09:16.602Z,3.58
2023-07-05T04:11:43.130Z,2.63
2023-07-05T04:14:10.401Z,2.85
2023-07-05T04:16:36.920Z,2.97
2023-07-05T04:19:03.654Z,2.60
2023-07-05T04:21:30.194Z,3.30
2023-07-05T04:23:57.011Z,2.80
2023-07-05T04:26:25.790Z,2.83
2023-07-05T04:28:52.700Z,3.17
2023-07-05T04:31:25.599Z,2.50
2023-07-05T04:33:52.398Z,2.90
2023-07-05T04:38:48.959Z,2.30
2023-07-05T04:41:15.515Z,2.63
2023-07-05T04:43:42.097Z,2.03
2023-07-05T04:46:08.704Z,2.20
2023-07-05T04:48:35.292Z,1.87
2023-07-05T04:51:02.060Z,1.77
2023-07-05T04:53:29.675Z,2.30
2023-07-05T04:55:59.333Z,2.00
2023-07-05T04:58:26.410Z,2.83
2023-07-05T05:00:53.876Z,1.93
2023-07-05T05:03:23.173Z,2.40
2023-07-05T05:05:53.492Z,1.73
2023-07-05T05:08:21.536Z,1.33
2023-07-05T05:10:53.146Z,1.57
2023-07-05T05:13:20.573Z,1.80
2023-07-05T05:15:47.220Z,1.33
2023-07-05T05:18:14.647Z,1.53
2023-07-05T05:20:41.805Z,1.40
2023-07-05T05:23:08.492Z,1.70
2023-07-05T05:25:35.618Z,1.60
2023-07-05T05:28:02.971Z,1.90
2023-07-05T05:30:32.435Z,1.30
2023-07-05T05:32:59.469Z,1.50
2023-07-05T05:35:26.129Z,1.60
2023-07-05T05:37:52.613Z,1.03
2023-07-05T05:40:19.286Z,1.60
2023-07-05T05:42:46.121Z,1.10
2023-07-05T05:45:12.911Z,1.30
2023-07-05T05:47:39.624Z,1.30
2023-07-05T05:50:06.998Z,1.00
2023-07-05T05:52:35.128Z,0.87
2023-07-05T05:55:01.795Z,1.13
2023-07-05T05:57:28.299Z,1.00
2023-07-05T05:59:54.889Z,0.73
2023-07-05T06:02:21.774Z,0.70
2023-07-05T06:04:48.602Z,0.80
2023-07-05T06:07:15.214Z,0.70
2023-07-05T06:09:48.905Z,0.73
2023-07-05T06:12:16.518Z,0.77
2023-07-05T06:14:43.254Z,0.80
2023-07-05T06:17:10.679Z,0.57
2023-07-05T06:19:37.429Z,0.85
2023-07-05T06:22:04.211Z,1.15
2023-07-05T06:24:33.269Z,0.88
2023-07-05T06:27:01.421Z,1.25
2023-07-05T06:29:28.099Z,0.70
2023-07-05T06:31:54.886Z,0.85
2023-07-05T06:34:23.147Z,0.57
2023-07-05T06:36:49.722Z,1.15
2023-07-05T06:39:16.356Z,0.50
2023-07-05T06:41:42.894Z,0.85
2023-07-05T06:44:09.518Z,0.40
2023-07-05T06:46:36.161Z,0.75
2023-07-05T06:49:02.817Z,0.88
2023-07-05T06:51:29.447Z,0.50
2023-07-05T06:53:56.131Z,0.85
2023-07-05T06:56:22.668Z,0.90
2023-07-05T06:58:49.235Z,1.02
2023-07-05T07:01:16.019Z,0.50
2023-07-05T07:03:42.996Z,0.80
2023-07-05T07:06:09.535Z,0.77
2023-07-05T07:08:36.866Z,0.45
2023-07-05T07:11:05.842Z,0.60
2023-07-05T07:13:37.480Z,0.70
2023-07-05T07:16:16.160Z,0.32
2023-07-05T07:18:47.946Z,0.50
2023-07-05T07:21:15.732Z,0.40
2023-07-05T07:23:42.552Z,1.02
2023-07-05T07:26:19.415Z,0.85
2023-07-05T07:28:48.204Z,0.57
2023-07-05T07:31:18.458Z,1.38
2023-07-05T07:33:46.547Z,0.70
2023-07-05T07:36:16.191Z,0.40
2023-07-05T07:38:43.481Z,1.42
2023-07-05T07:41:18.224Z,0.70
2023-07-05T07:43:45.325Z,1.00
2023-07-05T07:46:15.145Z,0.70
2023-07-05T07:48:43.864Z,0.52
2023-07-05T07:51:20.276Z,0.47
2023-07-05T07:53:54.736Z,1.23
2023-07-05T07:56:22.881Z,0.82
2023-07-05T07:58:53.514Z,1.10
2023-07-05T08:01:27.444Z,1.10
2023-07-05T08:03:55.710Z,0.80
2023-07-05T08:06:32.600Z,0.70
2023-07-05T08:08:59.704Z,0.57
2023-07-05T08:11:26.728Z,0.52
2023-07-05T08:13:53.333Z,1.08
2023-07-05T08:16:20.369Z,0.50
2023-07-05T08:18:47.018Z,0.77
2023-07-05T08:21:16.995Z,1.23
2023-07-05T08:23:44.857Z,0.57
2023-07-05T08:26:12.863Z,0.47
2023-07-05T08:28:39.977Z,0.35
2023-07-05T08:31:08.455Z,0.70
2023-07-05T08:33:37.325Z,0.80
2023-07-05T08:36:16.202Z,0.88
2023-07-05T08:38:47.247Z,0.63
2023-07-05T08:41:19.319Z,0.60
2023-07-05T08:43:54.336Z,1.10
2023-07-05T08:46:22.454Z,0.60
2023-07-05T08:48:50.890Z,1.00
2023-07-05T08:51:18.783Z,0.70
2023-07-05T08:53:52.818Z,0.60
2023-07-05T08:56:46.653Z,0.57
2023-07-05T08:59:30.413Z,0.70
2023-07-05T09:01:58.471Z,0.80
2023-07-05T09:04:28.398Z,0.80
2023-07-05T09:07:10.027Z,0.80
2023-07-05T09:10:00.520Z,0.70
2023-07-05T09:12:35.898Z,0.90
2023-07-05T09:15:25.211Z,0.50
2023-07-05T09:18:00.122Z,0.60
2023-07-05T09:20:51.125Z,0.45
2023-07-05T09:23:26.593Z,0.90
2023-07-05T09:26:01.874Z,0.52
2023-07-05T09:28:47.519Z,0.50
2023-07-05T09:31:15.642Z,0.50
2023-07-05T09:33:50.561Z,0.60
2023-07-05T09:36:26.557Z,0.52
2023-07-05T09:39:04.025Z,0.63
2023-07-05T09:41:48.422Z,0.75
2023-07-05T09:44:18.587Z,0.60
2023-07-05T09:46:45.853Z,0.68
2023-07-05T09:49:15.615Z,1.08
2023-07-05T09:51:44.284Z,1.10
2023-07-05T09:54:25.004Z,0.88
2023-07-05T09:57:07.426Z,1.58
2023-07-05T09:59:35.491Z,0.68
2023-07-05T10:02:11.391Z,0.80
2023-07-05T10:04:51.803Z,0.60
2023-07-05T10:07:24.592Z,0.95
2023-07-05T10:10:09.729Z,0.90
2023-07-05T10:12:37.857Z,0.85
2023-07-05T10:15:21.880Z,1.35
2023-07-05T10:17:52.530Z,1.00
2023-07-05T10:20:25.270Z,0.77
2023-07-05T10:23:23.536Z,0.60
2023-07-05T10:25:51.003Z,1.08
2023-07-05T10:28:22.040Z,1.25
2023-07-05T10:30:57.100Z,1.10
2023-07-05T10:33:29.690Z,0.90
2023-07-05T10:36:11.749Z,1.20
2023-07-05T10:38:41.927Z,1.42
2023-07-05T10:41:20.734Z,1.70
2023-07-05T10:43:50.333Z,1.02
2023-07-05T10:46:20.379Z,1.00
2023-07-05T10:48:49.286Z,1.30
2023-07-05T10:51:27.691Z,1.33
2023-07-05T10:54:01.376Z,1.30
2023-07-05T10:56:32.729Z,1.63
2023-07-05T10:59:28.212Z,1.08
2023-07-05T11:02:02.792Z,0.90
2023-07-05T11:04:33.027Z,0.73
2023-07-05T11:07:12.311Z,1.05
2023-07-05T11:09:39.745Z,1.20
2023-07-05T11:12:16.798Z,0.60
2023-07-05T11:14:44.761Z,1.10
2023-07-05T11:17:23.473Z,1.20
2023-07-05T11:19:50.294Z,1.05
2023-07-05T11:22:40.161Z,1.20
2023-07-05T11:28:58.432Z,0.98
2023-07-05T11:31:30.953Z,1.00
2023-07-05T11:34:22.629Z,1.20
2023-07-05T11:36:50.855Z,1.00
2023-07-05T11:39:36.689Z,1.20
2023-07-05T11:42:18.233Z,1.00
2023-07-05T11:45:11.622Z,1.20
2023-07-05T11:47:38.194Z,1.63
2023-07-05T11:50:10.035Z,1.75
2023-07-05T11:52:39.128Z,0.98
2023-07-05T11:55:20.623Z,1.17
2023-07-05T11:58:13.170Z,1.25
2023-07-05T12:00:48.889Z,0.75
2023-07-05T12:03:24.657Z,0.95
2023-07-05T12:06:10.492Z,0.77
2023-07-05T12:08:44.714Z,1.00
2023-07-05T12:11:13.395Z,1.45
2023-07-05T12:13:40.154Z,1.05
2023-07-05T12:16:09.097Z,0.82
2023-07-05T12:18:36.164Z,0.93
2023-07-05T12:21:06.917Z,0.90
2023-07-05T12:23:36.399Z,1.20
2023-07-05T12:26:12.427Z,0.75
2023-07-05T12:28:47.653Z,1.00
2023-07-05T12:31:14.340Z,0.90
2023-07-05T12:33:44.467Z,0.98
2023-07-05T12:36:16.789Z,1.67
2023-07-05T12:38:46.162Z,0.60
2023-07-05T12:41:19.772Z,0.95
2023-07-05T12:43:48.288Z,0.80
2023-07-05T12:46:24.611Z,0.88
2023-07-05T12:48:51.536Z,0.98
2023-07-05T12:51:21.130Z,0.65
2023-07-05T12:53:49.677Z,0.50
2023-07-05T12:56:19.644Z,1.10
2023-07-05T12:58:59.104Z,1.02
2023-07-05T13:01:34.157Z,0.65
2023-07-05T13:04:02.105Z,0.82
2023-07-05T13:06:29.301Z,0.77
2023-07-05T13:08:58.934Z,0.95
2023-07-05T13:11:27.954Z,0.80
2023-07-05T13:14:00.147Z,0.75
2023-07-05T13:16:33.279Z,0.60
2023-07-05T13:19:08.146Z,0.82
2023-07-05T13:21:46.953Z,0.60
2023-07-05T13:24:36.432Z,0.80
2023-07-05T13:27:03.446Z,0.47
2023-07-05T13:29:38.474Z,1.00
2023-07-05T13:32:06.640Z,0.90
2023-07-05T13:34:33.459Z,0.80
2023-07-05T13:37:08.966Z,0.52
2023-07-05T13:39:36.301Z,0.68
2023-07-05T13:42:05.413Z,0.60
2023-07-05T13:44:32.067Z,0.70
2023-07-05T13:47:00.238Z,0.85
2023-07-05T13:49:28.082Z,1.00
2023-07-05T13:51:58.144Z,0.80
2023-07-05T13:54:25.728Z,0.80
2023-07-05T13:56:52.611Z,0.80
2023-07-05T13:59:20.545Z,0.60
2023-07-05T14:01:50.700Z,0.60
2023-07-05T14:04:18.634Z,0.90
2023-07-05T14:06:45.205Z,0.95
2023-07-05T14:09:12.457Z,1.10
2023-07-05T14:11:42.315Z,0.75
2023-07-05T14:14:13.795Z,0.77
2023-07-05T14:16:40.842Z,0.85
2023-07-05T14:19:07.596Z,0.63
2023-07-05T14:21:35.694Z,0.70
2023-07-05T14:24:04.438Z,0.65
2023-07-05T14:26:33.773Z,0.47
2023-07-05T14:29:00.595Z,0.65
2023-07-05T14:31:28.150Z,0.80
2023-07-05T14:33:56.997Z,0.60
2023-07-05T14:36:24.141Z,0.88
2023-07-05T14:38:51.079Z,0.73
2023-07-05T14:41:24.833Z,1.05
2023-07-05T14:43:52.528Z,1.10
2023-07-05T14:46:19.277Z,0.50
2023-07-05T14:48:46.264Z,0.70
2023-07-05T14:51:14.863Z,0.57
2023-07-05T14:53:44.355Z,0.60
2023-07-05T14:56:11.284Z,0.60
2023-07-05T14:58:37.890Z,0.93
2023-07-05T15:01:07.893Z,0.75
2023-07-05T15:03:40.844Z,0.60
2023-07-05T15:06:07.605Z,0.88
2023-07-05T15:08:35.966Z,0.70
2023-07-05T15:11:03.271Z,0.63
2023-07-05T15:13:32.711Z,0.50
2023-07-05T15:15:59.963Z,0.85
2023-07-05T15:18:28.111Z,1.00
2023-07-05T15:20:55.373Z,0.75
2023-07-05T15:23:22.119Z,0.88
2023-07-05T15:25:53.696Z,0.70
2023-07-05T15:28:20.358Z,0.50
2023-07-05T15:30:46.992Z,0.57
2023-07-05T15:33:13.638Z,0.65
2023-07-05T15:35:41.475Z,0.88
2023-07-05T15:38:08.181Z,1.00
2023-07-05T15:40:36.538Z,0.60
2023-07-05T15:43:03.664Z,0.50
2023-07-05T15:45:30.341Z,0.60
2023-07-05T15:47:57.856Z,0.65
2023-07-05T15:50:28.733Z,0.70
2023-07-05T15:52:56.231Z,1.10
2023-07-05T15:55:25.218Z,0.73
2023-07-05T15:57:53.232Z,0.80
2023-07-05T16:00:28.366Z,0.70
2023-07-05T16:03:00.865Z,0.50
2023-07-05T16:05:33.369Z,0.63
2023-07-05T16:08:02.326Z,0.60
2023-07-05T16:10:30.049Z,0.70
2023-07-05T16:13:00.498Z,1.42
2023-07-05T16:15:28.485Z,0.80
2023-07-05T16:17:55.450Z,0.80
2023-07-05T16:20:22.892Z,0.68
2023-07-05T16:22:49.648Z,0.50
2023-07-05T16:25:16.151Z,0.60
2023-07-05T16:27:42.859Z,0.95
2023-07-05T16:30:10.778Z,0.85
2023-07-05T16:32:37.264Z,0.95
2023-07-05T16:35:04.106Z,0.88
2023-07-05T16:37:30.832Z,0.95
2023-07-05T16:39:59.350Z,0.82
2023-07-05T16:42:27.760Z,1.08
2023-07-05T16:44:54.448Z,0.77
2023-07-05T16:47:21.157Z,1.15
2023-07-05T16:49:47.847Z,0.95
2023-07-05T16:52:14.429Z,1.25
2023-07-05T16:54:41.270Z,1.20
2023-07-05T16:57:08.290Z,1.27
2023-07-05T16:59:36.395Z,1.10
2023-07-05T17:02:04.664Z,1.25
2023-07-05T17:04:31.739Z,1.52
2023-07-05T17:06:58.521Z,0.82
2023-07-05T17:09:27.342Z,1.15
2023-07-05T17:11:55.977Z,1.10
2023-07-05T17:14:22.661Z,1.23
2023-07-05T17:16:50.509Z,0.50
2023-07-05T17:19:17.114Z,1.27
2023-07-05T17:21:43.913Z,0.90
2023-07-05T17:24:10.729Z,0.77
2023-07-05T17:26:37.727Z,0.93
2023-07-05T17:29:04.376Z,1.02
2023-07-05T17:31:31.199Z,1.00
2023-07-05T17:33:58.851Z,0.90
2023-07-05T17:36:27.095Z,1.10
2023-07-05T17:38:54.395Z,2.05
2023-07-05T17:41:22.776Z,0.50
2023-07-05T17:43:49.588Z,0.63
2023-07-05T17:46:34.697Z,0.70
2023-07-05T17:49:03.863Z,0.90
2023-07-05T17:51:32.639Z,2.20
2023-07-05T17:53:59.844Z,1.38
2023-07-05T17:56:27.054Z,1.13
2023-07-05T17:58:56.538Z,0.70
2023-07-05T18:01:26.234Z,0.60
2023-07-05T18:03:53.028Z,0.80
2023-07-05T18:06:19.990Z,1.27
2023-07-05T18:08:48.753Z,0.88
2023-07-05T18:11:16.526Z,1.00
2023-07-05T18:13:43.680Z,0.70
2023-07-05T18:16:17.093Z,0.80
2023-07-05T18:18:44.284Z,1.15
2023-07-05T18:21:13.388Z,0.95
2023-07-05T18:23:40.730Z,1.27
2023-07-05T18:26:11.176Z,1.10
2023-07-05T18:28:38.072Z,1.40
2023-07-05T18:31:05.941Z,0.70
2023-07-05T18:33:34.797Z,0.80
2023-07-05T18:36:02.791Z,1.20
2023-07-05T18:38:31.322Z,0.82
2023-07-05T18:40:59.435Z,0.73
2023-07-05T18:43:26.058Z,1.48
2023-07-05T18:45:58.705Z,0.82
2023-07-05T18:48:25.605Z,0.85
2023-07-05T18:50:54.744Z,0.98
2023-07-05T18:53:23.854Z,1.27
2023-07-05T18:55:55.855Z,1.08
2023-07-05T18:58:24.702Z,1.00
2023-07-05T19:00:57.034Z,0.73
2023-07-05T19:03:24.688Z,0.80
2023-07-05T19:06:00.430Z,0.80
2023-07-05T19:08:27.355Z,1.02
2023-07-05T19:11:27.577Z,1.30
2023-07-05T19:13:54.829Z,0.77
2023-07-05T19:16:27.129Z,0.73
2023-07-05T19:18:54.073Z,1.13
2023-07-05T19:21:20.933Z,1.08
2023-07-05T19:23:50.345Z,0.57
2023-07-05T19:26:19.205Z,1.33
2023-07-05T19:28:47.888Z,1.00
2023-07-05T19:31:18.976Z,0.73
2023-07-05T19:33:51.022Z,1.00
2023-07-05T19:36:23.969Z,1.45
2023-07-05T19:38:51.754Z,0.55
2023-07-05T19:41:21.063Z,1.70
2023-07-05T19:43:50.738Z,1.17
2023-07-05T19:46:24.076Z,0.70
2023-07-05T19:48:54.730Z,1.08
2023-07-05T19:51:21.577Z,0.90
2023-07-05T19:53:48.211Z,0.93
2023-07-05T19:56:15.670Z,1.15
2023-07-05T19:58:43.340Z,1.10
2023-07-05T20:01:10.695Z,1.13
2023-07-05T20:03:37.544Z,0.70
2023-07-05T20:06:04.686Z,0.73
2023-07-05T20:08:32.634Z,0.70
2023-07-05T20:11:08.267Z,1.05
2023-07-05T20:13:35.061Z,0.80
2023-07-05T20:16:01.740Z,0.80
2023-07-05T20:18:28.434Z,1.52
2023-07-05T20:21:00.715Z,0.80
2023-07-05T20:23:35.732Z,0.80
2023-07-05T20:26:04.183Z,0.55
2023-07-05T20:28:30.838Z,1.30
2023-07-05T20:31:00.502Z,1.10
2023-07-05T20:33:31.690Z,0.68
2023-07-05T20:35:58.949Z,1.40
2023-07-05T20:38:26.143Z,0.95
2023-07-05T20:40:53.988Z,0.98
2023-07-05T20:43:20.851Z,1.30
2023-07-05T20:45:47.449Z,1.02
2023-07-05T20:48:14.315Z,0.98
2023-07-05T20:50:40.961Z,0.82
2023-07-05T20:53:07.491Z,0.80
2023-07-05T20:55:34.121Z,1.00
2023-07-05T20:58:00.665Z,1.00
2023-07-05T21:00:29.547Z,0.75
2023-07-05T21:02:56.232Z,0.98
2023-07-05T21:05:22.791Z,1.40
2023-07-05T21:07:50.637Z,1.13
2023-07-05T21:10:19.038Z,0.85
2023-07-05T21:12:47.739Z,0.80
2023-07-05T21:15:14.553Z,0.82
2023-07-05T21:17:41.256Z,0.95
2023-07-05T21:20:09.942Z,1.10
2023-07-05T21:22:36.920Z,1.00
2023-07-05T21:25:03.766Z,0.98
2023-07-05T21:27:30.346Z,1.20
2023-07-05T21:29:56.985Z,1.17
2023-07-05T21:32:23.607Z,1.00
2023-07-05T21:34:50.250Z,0.90
2023-07-05T21:37:16.941Z,1.27
2023-07-05T21:39:43.600Z,0.83
2023-07-05T21:42:10.721Z,0.87
2023-07-05T21:44:37.345Z,0.83
2023-07-05T21:47:04.669Z,0.90
2023-07-05T21:49:31.175Z,0.77
2023-07-05T21:51:57.782Z,0.77
2023-07-05T21:54:24.404Z,1.13
2023-07-05T21:56:50.975Z,1.00
2023-07-05T21:59:17.573Z,1.27
2023-07-05T22:01:44.668Z,0.90
2023-07-05T22:04:11.896Z,0.80
2023-07-05T22:06:38.525Z,1.07
2023-07-05T22:09:05.839Z,0.90
2023-07-05T22:11:32.414Z,0.87
2023-07-05T22:13:59.257Z,0.60
2023-07-05T22:16:28.550Z,0.60
2023-07-05T22:18:56.685Z,1.20
2023-07-05T22:21:25.301Z,0.70
2023-07-05T22:23:52.936Z,1.07
2023-07-05T22:26:22.030Z,0.57
2023-07-05T22:28:50.275Z,0.90
2023-07-05T22:31:18.067Z,0.80
2023-07-05T22:33:45.480Z,0.70
2023-07-05T22:36:14.744Z,0.40
2023-07-05T22:38:41.677Z,0.60
2023-07-05T22:41:08.382Z,0.47
2023-07-05T22:43:35.139Z,0.85
2023-07-05T22:46:03.219Z,0.73
2023-07-05T22:48:37.470Z,1.05
2023-07-05T22:51:05.157Z,0.70
2023-07-05T22:53:32.344Z,0.80
2023-07-05T22:56:00.013Z,0.73
2023-07-05T22:58:30.053Z,0.50
2023-07-05T23:01:06.618Z,0.73
2023-07-05T23:03:35.691Z,0.50
2023-07-05T23:06:06.295Z,0.70
2023-07-05T23:08:34.330Z,0.57
2023-07-05T23:11:08.956Z,0.90
2023-07-05T23:13:37.702Z,0.75
2023-07-05T23:16:07.462Z,0.73
2023-07-05T23:18:34.082Z,0.60
2023-07-05T23:21:02.361Z,0.65
2023-07-05T23:23:30.502Z,0.60
2023-07-05T23:25:58.556Z,0.80
2023-07-05T23:28:27.239Z,0.60
2023-07-05T23:31:07.357Z,0.68
2023-07-05T23:33:34.325Z,0.40
2023-07-05T23:36:01.761Z,0.55
2023-07-05T23:38:34.044Z,0.60
2023-07-05T23:41:01.590Z,0.50
2023-07-05T23:43:29.368Z,0.65
2023-07-05T23:45:57.127Z,0.47
2023-07-05T23:48:24.071Z,0.57
2023-07-05T23:50:52.138Z,0.45
2023-07-05T23:53:18.937Z,0.93
2023-07-05T23:55:46.906Z,0.60
2023-07-05T23:58:15.642Z,0.43
